createdAt,value
2019-03-23T00:00:10.725Z,10.30
2019-03-23T00:02:39.618Z,9.87
2019-03-23T00:05:08.811Z,11.03
2019-03-23T00:07:37.627Z,11.50
2019-03-23T00:10:07.376Z,10.57
2019-03-23T00:12:36.224Z,10.17
2019-03-23T00:15:08.037Z,11.90
2019-03-23T00:17:38.854Z,9.67
2019-03-23T00:20:08.373Z,11.10
2019-03-23T00:22:37.298Z,9.83
2019-03-23T00:25:06.213Z,9.50
2019-03-23T00:27:35.074Z,9.20
2019-03-23T00:30:06.652Z,9.57
2019-03-23T00:32:35.522Z,9.23
2019-03-23T00:35:06.282Z,8.37
2019-03-23T00:37:35.597Z,9.27
2019-03-23T00:40:07.447Z,10.03
2019-03-23T00:42:36.347Z,8.60
2019-03-23T00:45:06.521Z,10.70
2019-03-23T00:47:35.306Z,11.23
2019-03-23T00:50:05.558Z,9.37
2019-03-23T00:52:34.397Z,10.83
2019-03-23T00:55:03.257Z,11.30
2019-03-23T00:57:32.101Z,12.03
2019-03-23T01:00:00.962Z,12.37
2019-03-23T01:02:29.787Z,12.17
2019-03-23T01:04:58.649Z,14.40
2019-03-23T01:07:27.537Z,14.17
2019-03-23T01:09:56.438Z,13.07
2019-03-23T01:12:25.336Z,14.80
2019-03-23T01:14:54.157Z,16.20
2019-03-23T01:17:22.993Z,16.33
2019-03-23T01:19:51.887Z,16.07
2019-03-23T01:22:20.764Z,14.43
2019-03-23T01:24:49.597Z,15.20
2019-03-23T01:27:18.440Z,15.60
2019-03-23T01:29:47.262Z,17.60
2019-03-23T01:32:16.122Z,17.80
2019-03-23T01:34:44.979Z,16.23
2019-03-23T01:37:13.858Z,17.47
2019-03-23T01:39:42.676Z,16.27
2019-03-23T01:42:11.617Z,17.43
2019-03-23T01:44:40.457Z,15.10
2019-03-23T01:47:09.271Z,15.00
2019-03-23T01:49:38.147Z,15.67
2019-03-23T01:52:07.016Z,19.10
2019-03-23T01:54:35.830Z,19.03
2019-03-23T01:57:04.706Z,14.83
2019-03-23T01:59:33.543Z,15.70
2019-03-23T02:02:02.383Z,16.70
2019-03-23T02:04:31.228Z,16.73
2019-03-23T02:07:00.080Z,14.63
2019-03-23T02:09:28.952Z,14.33
2019-03-23T02:11:57.801Z,14.30
2019-03-23T02:14:26.681Z,13.80
2019-03-23T02:16:55.545Z,13.33
2019-03-23T02:19:24.411Z,13.60
2019-03-23T02:21:53.266Z,13.87
2019-03-23T02:24:22.145Z,14.47
2019-03-23T02:26:50.957Z,14.43
2019-03-23T02:29:19.879Z,13.40
2019-03-23T02:31:48.677Z,14.30
2019-03-23T02:34:17.559Z,13.03
2019-03-23T02:36:46.363Z,12.77
2019-03-23T02:39:15.219Z,11.93
2019-03-23T02:41:44.057Z,12.87
2019-03-23T02:44:12.977Z,14.43
2019-03-23T02:46:41.814Z,10.63
2019-03-23T02:49:10.633Z,11.53
2019-03-23T02:51:39.825Z,11.73
2019-03-23T02:54:08.863Z,11.57
2019-03-23T02:56:37.778Z,11.53
2019-03-23T02:59:06.640Z,10.33
2019-03-23T03:01:35.498Z,10.60
2019-03-23T03:04:04.438Z,10.63
2019-03-23T03:06:33.325Z,9.73
2019-03-23T03:09:02.205Z,10.17
2019-03-23T03:11:31.037Z,9.47
2019-03-23T03:13:59.909Z,8.50
2019-03-23T03:16:28.769Z,8.53
2019-03-23T03:18:57.638Z,8.57
2019-03-23T03:21:26.445Z,8.33
2019-03-23T03:23:55.312Z,6.70
2019-03-23T03:26:24.147Z,7.63
2019-03-23T03:28:53.013Z,7.37
2019-03-23T03:31:21.970Z,7.40
2019-03-23T03:33:50.765Z,7.47
2019-03-23T03:36:19.626Z,7.13
2019-03-23T03:38:48.408Z,7.00
2019-03-23T03:41:17.259Z,7.30
2019-03-23T03:43:46.140Z,7.03
2019-03-23T03:46:14.973Z,6.80
2019-03-23T03:48:43.844Z,7.03
2019-03-23T03:51:12.688Z,7.90
2019-03-23T03:53:41.544Z,7.57
2019-03-23T03:56:10.361Z,8.67
2019-03-23T03:58:39.230Z,8.97
2019-03-23T04:01:08.032Z,8.50
2019-03-23T04:03:36.937Z,9.80
2019-03-23T04:06:05.773Z,10.93
2019-03-23T04:08:34.690Z,10.67
2019-03-23T04:11:07.961Z,12.27
2019-03-23T04:13:36.858Z,15.10
2019-03-23T04:16:05.779Z,12.93
2019-03-23T04:18:34.658Z,13.63
2019-03-23T04:21:03.485Z,16.70
2019-03-23T04:23:32.349Z,14.30
2019-03-23T04:26:01.179Z,14.90
2019-03-23T04:28:30.030Z,17.40
2019-03-23T04:30:58.927Z,19.37
2019-03-23T04:33:27.737Z,20.10
2019-03-23T04:35:56.604Z,17.80
2019-03-23T04:38:25.472Z,20.33
2019-03-23T04:40:54.298Z,16.47
2019-03-23T04:43:23.188Z,15.10
2019-03-23T04:45:52.018Z,15.93
2019-03-23T04:48:21.660Z,15.10
2019-03-23T04:50:50.515Z,18.30
2019-03-23T04:53:19.435Z,17.50
2019-03-23T04:55:48.233Z,16.17
2019-03-23T04:58:17.102Z,20.10
2019-03-23T05:00:45.961Z,19.87
2019-03-23T05:03:14.833Z,18.97
2019-03-23T05:05:43.698Z,19.70
2019-03-23T05:08:12.538Z,19.00
2019-03-23T05:10:41.371Z,19.87
2019-03-23T05:13:10.243Z,18.57
2019-03-23T05:15:39.103Z,19.57
2019-03-23T05:18:07.926Z,19.77
2019-03-23T05:20:36.787Z,19.17
2019-03-23T05:23:05.626Z,19.07
2019-03-23T05:25:34.434Z,20.37
2019-03-23T05:28:03.321Z,23.53
2019-03-23T05:30:32.185Z,23.90
2019-03-23T05:33:01.151Z,21.00
2019-03-23T05:35:29.970Z,24.43
2019-03-23T05:37:58.799Z,24.03
2019-03-23T05:40:27.624Z,21.33
2019-03-23T05:42:56.459Z,24.13
2019-03-23T05:45:25.312Z,23.53
2019-03-23T05:47:54.135Z,24.90
2019-03-23T05:50:23.047Z,24.93
2019-03-23T05:52:51.847Z,26.30
2019-03-23T05:55:20.659Z,23.57
2019-03-23T05:57:49.546Z,27.97
2019-03-23T06:00:19.803Z,25.60
2019-03-23T06:02:48.646Z,25.97
2019-03-23T06:05:17.506Z,25.97
2019-03-23T06:07:46.456Z,24.27
2019-03-23T06:10:15.330Z,25.47
2019-03-23T06:12:44.241Z,26.80
2019-03-23T06:15:13.051Z,24.07
2019-03-23T06:17:41.886Z,25.67
2019-03-23T06:20:10.725Z,25.73
2019-03-23T06:22:39.627Z,24.53
2019-03-23T06:25:08.964Z,23.53
2019-03-23T06:27:37.820Z,25.20
2019-03-23T06:30:09.426Z,22.13
2019-03-23T06:32:38.329Z,25.80
2019-03-23T06:35:08.354Z,25.60
2019-03-23T06:37:37.178Z,22.97
2019-03-23T06:40:10.930Z,26.20
2019-03-23T06:42:39.808Z,22.60
2019-03-23T06:45:10.363Z,32.83
2019-03-23T06:47:39.186Z,28.10
2019-03-23T06:50:10.150Z,33.10
2019-03-23T06:52:38.989Z,36.90
2019-03-23T06:55:09.097Z,36.50
2019-03-23T06:57:37.896Z,35.63
2019-03-23T07:00:15.464Z,43.83
2019-03-23T07:02:44.322Z,45.50
2019-03-23T07:05:14.074Z,45.33
2019-03-23T07:07:42.866Z,40.87
2019-03-23T07:10:14.775Z,38.57
2019-03-23T07:12:43.581Z,44.23
2019-03-23T07:15:20.225Z,41.27
2019-03-23T07:17:45.897Z,44.37
2019-03-23T07:20:15.394Z,46.93
2019-03-23T07:22:44.177Z,52.00
2019-03-23T07:25:13.119Z,46.67
2019-03-23T07:27:41.936Z,48.67
2019-03-23T07:30:13.155Z,44.00
2019-03-23T07:32:41.959Z,44.23
2019-03-23T07:35:11.165Z,46.50
2019-03-23T07:37:40.007Z,42.57
2019-03-23T07:40:10.864Z,40.63
2019-03-23T07:42:39.722Z,39.23
2019-03-23T07:45:11.678Z,36.17
2019-03-23T07:47:40.570Z,34.60
2019-03-23T07:50:14.978Z,33.70
2019-03-23T07:52:43.888Z,33.57
2019-03-23T07:55:15.072Z,32.77
2019-03-23T07:57:44.277Z,32.30
2019-03-23T08:00:21.229Z,34.83
2019-03-23T08:02:50.036Z,31.83
2019-03-23T08:05:18.909Z,31.70
2019-03-23T08:07:47.787Z,29.00
2019-03-23T08:10:31.232Z,31.23
2019-03-23T08:13:00.325Z,33.57
2019-03-23T08:15:29.650Z,34.87
2019-03-23T08:17:58.526Z,30.77
2019-03-23T08:20:27.380Z,35.00
2019-03-23T08:22:56.225Z,35.23
2019-03-23T08:25:25.031Z,33.73
2019-03-23T08:27:53.892Z,32.57
2019-03-23T08:30:22.732Z,34.10
2019-03-23T08:32:51.554Z,35.70
2019-03-23T08:35:20.615Z,31.77
2019-03-23T08:37:49.454Z,34.17
2019-03-23T08:40:18.339Z,36.87
2019-03-23T08:42:47.199Z,37.93
2019-03-23T08:45:16.025Z,38.90
2019-03-23T08:47:47.769Z,36.77
2019-03-23T08:50:16.709Z,37.30
2019-03-23T08:52:45.585Z,34.37
2019-03-23T08:55:14.425Z,35.93
2019-03-23T08:57:43.231Z,36.70
2019-03-23T09:00:12.099Z,34.90
2019-03-23T09:02:40.938Z,34.37
2019-03-23T09:05:09.778Z,35.13
2019-03-23T09:07:38.602Z,35.70
2019-03-23T09:10:07.862Z,33.27
2019-03-23T09:12:37.536Z,36.03
2019-03-23T09:15:09.020Z,32.03
2019-03-23T09:17:37.853Z,33.37
2019-03-23T09:20:09.208Z,29.47
2019-03-23T09:22:38.043Z,29.13
2019-03-23T09:25:07.496Z,29.97
2019-03-23T09:27:36.359Z,29.23
2019-03-23T09:30:11.072Z,29.87
2019-03-23T09:32:39.945Z,33.13
2019-03-23T09:35:08.957Z,30.43
2019-03-23T09:37:38.209Z,29.70
2019-03-23T09:40:10.992Z,30.97
2019-03-23T09:42:38.383Z,31.57
2019-03-23T09:45:08.544Z,32.00
2019-03-23T09:47:37.687Z,31.13
2019-03-23T09:50:09.063Z,31.47
2019-03-23T09:52:37.891Z,30.67
2019-03-23T09:55:07.950Z,30.53
2019-03-23T09:57:36.787Z,30.50
2019-03-23T10:00:08.392Z,26.90
2019-03-23T10:02:37.235Z,26.77
2019-03-23T10:05:07.603Z,25.07
2019-03-23T10:07:36.455Z,23.93
2019-03-23T10:10:06.702Z,24.70
2019-03-23T10:12:35.551Z,24.00
2019-03-23T10:15:06.841Z,22.77
2019-03-23T10:17:35.650Z,23.87
2019-03-23T10:20:06.241Z,24.43
2019-03-23T10:22:35.057Z,19.13
2019-03-23T10:25:05.347Z,22.27
2019-03-23T10:27:34.172Z,23.03
2019-03-23T10:30:03.204Z,26.87
2019-03-23T10:32:32.052Z,23.33
2019-03-23T10:35:00.927Z,22.83
2019-03-23T10:37:29.815Z,24.40
2019-03-23T10:39:58.687Z,26.57
2019-03-23T10:42:27.567Z,24.93
2019-03-23T10:44:56.454Z,29.40
2019-03-23T10:47:25.431Z,25.73
2019-03-23T10:49:54.342Z,25.57
2019-03-23T10:52:23.225Z,26.40
2019-03-23T10:54:52.070Z,29.10
2019-03-23T10:57:20.817Z,27.20
2019-03-23T10:59:49.676Z,27.23
2019-03-23T11:02:18.542Z,27.27
2019-03-23T11:04:47.421Z,29.97
2019-03-23T11:07:16.240Z,27.07
2019-03-23T11:09:45.115Z,28.50
2019-03-23T11:12:13.957Z,29.27
2019-03-23T11:14:42.823Z,28.17
2019-03-23T11:17:11.660Z,29.20
2019-03-23T11:19:40.481Z,29.83
2019-03-23T11:22:09.348Z,28.97
2019-03-23T11:24:38.170Z,28.87
2019-03-23T11:27:07.066Z,28.97
2019-03-23T11:29:35.901Z,27.77
2019-03-23T11:32:04.903Z,30.23
2019-03-23T11:34:33.778Z,26.83
2019-03-23T11:37:02.621Z,30.53
2019-03-23T11:39:31.415Z,27.50
2019-03-23T11:42:00.305Z,28.27
2019-03-23T11:44:29.141Z,27.43
2019-03-23T11:46:58.011Z,25.47
2019-03-23T11:49:26.881Z,27.30
2019-03-23T11:51:58.631Z,26.47
2019-03-23T11:54:27.465Z,26.50
2019-03-23T11:56:56.339Z,24.87
2019-03-23T11:59:25.212Z,25.43
2019-03-23T12:01:54.091Z,26.00
2019-03-23T12:04:24.946Z,24.20
2019-03-23T12:06:53.466Z,22.33
2019-03-23T12:09:22.269Z,23.87
2019-03-23T12:11:51.142Z,24.70
2019-03-23T12:14:19.959Z,24.30
2019-03-23T12:16:48.859Z,23.00
2019-03-23T12:19:17.715Z,24.10
2019-03-23T12:21:46.535Z,23.80
2019-03-23T12:24:15.401Z,22.03
2019-03-23T12:26:44.304Z,22.37
2019-03-23T12:29:13.124Z,20.33
2019-03-23T12:31:41.949Z,21.27
2019-03-23T12:34:10.858Z,19.50
2019-03-23T12:36:39.666Z,19.17
2019-03-23T12:39:08.563Z,20.90
2019-03-23T12:41:37.500Z,21.50
2019-03-23T12:44:06.380Z,21.07
2019-03-23T12:46:35.197Z,20.63
2019-03-23T12:49:04.040Z,18.73
2019-03-23T12:51:32.889Z,20.53
2019-03-23T12:54:01.718Z,21.47
2019-03-23T12:56:30.587Z,21.00
2019-03-23T12:58:59.498Z,19.63
2019-03-23T13:01:28.407Z,19.60
2019-03-23T13:03:57.228Z,20.07
2019-03-23T13:06:26.098Z,19.30
2019-03-23T13:08:54.907Z,17.67
2019-03-23T13:11:31.093Z,19.07
2019-03-23T13:13:54.246Z,18.33
2019-03-23T13:16:23.130Z,16.67
2019-03-23T13:18:52.021Z,19.03
2019-03-23T13:21:20.861Z,18.30
2019-03-23T13:23:52.439Z,17.63
2019-03-23T13:26:21.474Z,15.37
2019-03-23T13:28:50.324Z,16.83
2019-03-23T13:31:19.162Z,17.10
2019-03-23T13:33:48.007Z,19.50
2019-03-23T13:36:16.837Z,18.57
2019-03-23T13:38:45.662Z,18.57
2019-03-23T13:41:14.517Z,16.63
2019-03-23T13:43:43.369Z,16.87
2019-03-23T13:46:12.235Z,17.43
2019-03-23T13:48:41.079Z,16.10
2019-03-23T13:51:09.938Z,15.87
2019-03-23T13:53:38.795Z,15.23
2019-03-23T13:56:07.673Z,15.20
2019-03-23T13:58:36.491Z,16.30
2019-03-23T14:01:05.340Z,17.27
2019-03-23T14:03:34.286Z,17.97
2019-03-23T14:06:03.126Z,16.17
2019-03-23T14:08:32.046Z,17.40
2019-03-23T14:11:00.895Z,18.23
2019-03-23T14:13:29.677Z,16.13
2019-03-23T14:15:58.652Z,16.67
2019-03-23T14:18:27.511Z,17.57
2019-03-23T14:20:56.421Z,18.00
2019-03-23T14:23:25.264Z,16.03
2019-03-23T14:25:54.052Z,14.67
2019-03-23T14:28:22.958Z,18.13
2019-03-23T14:30:51.787Z,15.17
2019-03-23T14:33:20.612Z,15.30
2019-03-23T14:35:49.483Z,16.70
2019-03-23T14:38:18.317Z,16.97
2019-03-23T14:40:47.174Z,17.40
2019-03-23T14:43:16.114Z,15.80
2019-03-23T14:45:44.991Z,16.27
2019-03-23T14:48:13.826Z,17.10
2019-03-23T14:50:42.833Z,17.07
2019-03-23T14:53:11.834Z,16.13
2019-03-23T14:55:40.682Z,16.57
2019-03-23T14:58:09.551Z,16.00
2019-03-23T15:00:38.364Z,14.90
2019-03-23T15:03:07.200Z,14.97
2019-03-23T15:05:36.064Z,15.57
2019-03-23T15:08:04.918Z,13.97
2019-03-23T15:10:33.805Z,16.33
2019-03-23T15:13:02.687Z,19.37
2019-03-23T15:15:31.626Z,19.83
2019-03-23T15:18:00.543Z,14.97
2019-03-23T15:20:29.358Z,14.63
2019-03-23T15:22:58.230Z,14.63
2019-03-23T15:25:27.088Z,13.83
2019-03-23T15:27:55.919Z,14.00
2019-03-23T15:30:24.781Z,12.47
2019-03-23T15:32:53.663Z,17.17
2019-03-23T15:35:22.582Z,14.87
2019-03-23T15:37:51.470Z,11.63
2019-03-23T15:40:20.308Z,11.83
2019-03-23T15:42:49.200Z,12.63
2019-03-23T15:45:18.034Z,10.73
2019-03-23T15:47:46.879Z,14.03
2019-03-23T15:50:15.871Z,15.27
2019-03-23T15:52:44.878Z,13.43
2019-03-23T15:55:13.784Z,13.17
2019-03-23T15:57:42.716Z,14.60
2019-03-23T16:00:13.297Z,12.43
2019-03-23T16:02:42.205Z,11.87
2019-03-23T16:05:11.078Z,11.27
2019-03-23T16:07:39.905Z,11.70
2019-03-23T16:10:09.745Z,11.30
2019-03-23T16:12:38.676Z,15.10
2019-03-23T16:15:10.327Z,11.07
2019-03-23T16:17:39.161Z,9.87
2019-03-23T16:20:12.307Z,10.37
2019-03-23T16:22:41.121Z,9.33
2019-03-23T16:25:11.020Z,9.60
2019-03-23T16:27:39.909Z,9.67
2019-03-23T16:30:11.266Z,9.67
2019-03-23T16:32:40.440Z,9.40
2019-03-23T16:35:09.881Z,9.60
2019-03-23T16:37:38.854Z,10.03
2019-03-23T16:40:09.480Z,9.60
2019-03-23T16:42:45.193Z,10.07
2019-03-23T16:45:10.652Z,10.33
2019-03-23T16:47:39.797Z,9.60
2019-03-23T16:50:09.626Z,10.13
2019-03-23T16:52:39.173Z,9.57
2019-03-23T16:55:09.991Z,10.20
2019-03-23T16:57:38.860Z,8.97
2019-03-23T17:00:10.318Z,10.30
2019-03-23T17:02:39.211Z,9.00
2019-03-23T17:05:08.280Z,9.33
2019-03-23T17:07:37.111Z,9.63
2019-03-23T17:10:07.567Z,9.53
2019-03-23T17:12:36.565Z,10.03
2019-03-23T17:15:07.792Z,10.17
2019-03-23T17:17:36.921Z,9.53
2019-03-23T17:20:06.092Z,10.17
2019-03-23T17:22:35.204Z,10.07
2019-03-23T17:25:08.278Z,9.30
2019-03-23T17:27:37.128Z,9.90
2019-03-23T17:30:09.682Z,10.03
2019-03-23T17:32:39.327Z,10.10
2019-03-23T17:35:08.831Z,10.60
2019-03-23T17:37:37.815Z,9.47
2019-03-23T17:40:09.945Z,9.33
2019-03-23T17:42:38.804Z,10.17
2019-03-23T17:45:08.240Z,10.40
2019-03-23T17:47:37.072Z,11.07
2019-03-23T17:50:07.060Z,10.33
2019-03-23T17:52:35.894Z,9.77
2019-03-23T17:55:06.678Z,10.07
2019-03-23T17:57:35.522Z,11.23
2019-03-23T18:00:07.440Z,9.97
2019-03-23T18:02:36.947Z,10.50
2019-03-23T18:05:07.536Z,10.47
2019-03-23T18:07:36.516Z,11.30
2019-03-23T18:10:08.332Z,11.63
2019-03-23T18:12:37.274Z,10.37
2019-03-23T18:15:10.033Z,11.27
2019-03-23T18:17:38.845Z,10.93
2019-03-23T18:20:08.367Z,10.63
2019-03-23T18:22:37.350Z,11.63
2019-03-23T18:25:07.329Z,10.93
2019-03-23T18:27:36.178Z,10.47
2019-03-23T18:30:07.991Z,10.63
2019-03-23T18:32:36.866Z,10.53
2019-03-23T18:35:06.976Z,11.10
2019-03-23T18:37:35.867Z,11.20
2019-03-23T18:40:08.231Z,9.77
2019-03-23T18:42:37.621Z,10.73
2019-03-23T18:45:07.129Z,10.67
2019-03-23T18:47:38.684Z,10.93
2019-03-23T18:50:07.788Z,11.33
2019-03-23T18:52:36.753Z,11.60
2019-03-23T18:55:07.316Z,10.53
2019-03-23T18:57:36.149Z,10.27
2019-03-23T19:00:07.383Z,11.80
2019-03-23T19:02:36.229Z,11.33
2019-03-23T19:05:05.650Z,12.00
2019-03-23T19:07:34.519Z,12.50
2019-03-23T19:10:03.456Z,11.73
2019-03-23T19:12:32.311Z,12.37
2019-03-23T19:15:01.134Z,11.03
2019-03-23T19:17:29.979Z,11.60
2019-03-23T19:19:58.844Z,12.20
2019-03-23T19:22:27.809Z,12.83
2019-03-23T19:24:56.679Z,12.33
2019-03-23T19:27:25.551Z,12.20
2019-03-23T19:29:54.357Z,12.07
2019-03-23T19:32:23.212Z,11.73
2019-03-23T19:34:52.087Z,11.33
2019-03-23T19:37:21.417Z,12.80
2019-03-23T19:39:50.306Z,11.30
2019-03-23T19:42:19.202Z,11.60
2019-03-23T19:44:48.173Z,12.40
2019-03-23T19:47:17.238Z,12.13
2019-03-23T19:49:46.106Z,12.90
2019-03-23T19:52:14.975Z,11.63
2019-03-23T19:54:43.867Z,12.57
2019-03-23T19:57:14.410Z,11.57
2019-03-23T19:59:43.241Z,12.47
2019-03-23T20:02:12.083Z,11.80
2019-03-23T20:04:41.326Z,10.83
2019-03-23T20:07:10.690Z,11.57
2019-03-23T20:09:39.741Z,11.67
2019-03-23T20:12:08.579Z,12.60
2019-03-23T20:14:37.569Z,11.67
2019-03-23T20:17:06.462Z,11.53
2019-03-23T20:19:35.771Z,12.63
2019-03-23T20:22:04.852Z,12.70
2019-03-23T20:24:33.825Z,11.83
2019-03-23T20:27:02.921Z,11.83
2019-03-23T20:29:31.729Z,12.47
2019-03-23T20:32:00.806Z,12.17
2019-03-23T20:34:30.401Z,11.80
2019-03-23T20:36:59.403Z,12.43
2019-03-23T20:39:28.334Z,12.13
2019-03-23T20:41:57.427Z,11.90
2019-03-23T20:44:26.727Z,12.90
2019-03-23T20:46:56.187Z,12.93
2019-03-23T20:49:25.449Z,12.40
2019-03-23T20:51:54.820Z,12.40
2019-03-23T20:54:24.269Z,12.87
2019-03-23T20:56:53.415Z,11.57
2019-03-23T20:59:22.269Z,11.43
2019-03-23T21:01:51.231Z,13.07
2019-03-23T21:04:20.046Z,12.20
2019-03-23T21:06:48.957Z,13.53
2019-03-23T21:09:17.812Z,12.40
2019-03-23T21:11:46.688Z,13.07
2019-03-23T21:14:20.209Z,12.23
2019-03-23T21:16:46.085Z,11.70
2019-03-23T21:19:15.038Z,12.30
2019-03-23T21:21:43.933Z,11.70
2019-03-23T21:24:12.726Z,11.80
2019-03-23T21:26:41.604Z,11.90
2019-03-23T21:29:10.573Z,12.57
2019-03-23T21:31:39.512Z,12.27
2019-03-23T21:34:10.358Z,12.27
2019-03-23T21:36:39.284Z,11.77
2019-03-23T21:39:08.157Z,11.63
2019-03-23T21:41:37.402Z,12.60
2019-03-23T21:44:06.276Z,12.00
2019-03-23T21:46:35.097Z,13.40
2019-03-23T21:49:03.978Z,11.80
2019-03-23T21:51:33.770Z,11.90
2019-03-23T21:54:02.660Z,12.00
2019-03-23T21:56:31.507Z,11.53
2019-03-23T21:59:00.393Z,11.93
2019-03-23T22:01:29.237Z,11.70
2019-03-23T22:03:58.102Z,12.87
2019-03-23T22:06:26.977Z,11.20
2019-03-23T22:08:55.882Z,11.90
2019-03-23T22:11:24.698Z,11.63
2019-03-23T22:13:53.618Z,11.10
2019-03-23T22:16:22.440Z,11.97
2019-03-23T22:18:51.253Z,11.27
2019-03-23T22:21:20.127Z,11.70
2019-03-23T22:23:48.966Z,11.80
2019-03-23T22:26:17.852Z,11.00
2019-03-23T22:28:46.728Z,11.73
2019-03-23T22:31:15.593Z,10.93
2019-03-23T22:33:44.445Z,12.17
2019-03-23T22:36:13.268Z,12.13
2019-03-23T22:38:42.076Z,12.23
2019-03-23T22:41:11.638Z,11.77
2019-03-23T22:43:40.452Z,11.73
2019-03-23T22:46:09.317Z,11.73
2019-03-23T22:48:38.167Z,10.43
2019-03-23T22:51:07.049Z,11.43
2019-03-23T22:53:35.933Z,12.00
2019-03-23T22:56:04.793Z,11.67
2019-03-23T22:58:33.611Z,12.13
2019-03-23T23:01:02.502Z,11.77
2019-03-23T23:03:31.606Z,10.70
2019-03-23T23:06:00.509Z,11.70
2019-03-23T23:08:29.327Z,11.63
2019-03-23T23:10:58.145Z,11.07
2019-03-23T23:13:27.026Z,10.83
2019-03-23T23:15:55.878Z,12.60
2019-03-23T23:18:24.691Z,10.13
2019-03-23T23:20:53.564Z,12.13
2019-03-23T23:23:22.419Z,11.53
2019-03-23T23:25:51.278Z,12.13
2019-03-23T23:28:20.092Z,11.83
2019-03-23T23:30:48.966Z,11.57
2019-03-23T23:33:17.786Z,13.57
2019-03-23T23:35:46.628Z,11.93
2019-03-23T23:38:15.446Z,12.63
2019-03-23T23:40:44.317Z,11.90
2019-03-23T23:43:13.140Z,13.07
2019-03-23T23:45:41.985Z,12.33
2019-03-23T23:48:10.797Z,11.30
2019-03-23T23:50:39.674Z,12.60
2019-03-23T23:53:12.176Z,13.63
2019-03-23T23:55:40.968Z,11.33
2019-03-23T23:58:09.813Z,12.57
